createdAt,value
2018-02-18T14:09:23.076Z,26.90
2018-02-18T14:10:23.050Z,29.40
2018-02-18T14:12:16.011Z,23.30
2018-02-18T14:13:16.011Z,24.80
2018-02-18T14:15:08.996Z,24.70
2018-02-18T14:16:08.970Z,21.50
2018-02-18T14:18:05.945Z,22.40
2018-02-18T14:19:05.921Z,22.00
2018-02-18T14:20:58.876Z,24.90
2018-02-18T14:21:58.876Z,27.00
2018-02-18T14:23:51.854Z,27.70
2018-02-18T14:24:51.835Z,26.30
2018-02-18T14:26:44.801Z,29.20
2018-02-18T14:27:44.862Z,29.90
2018-02-18T14:29:37.774Z,30.10
2018-02-18T14:30:37.807Z,22.50
2018-02-18T14:31:37.755Z,26.80
2018-02-18T14:32:37.765Z,30.00
2018-02-18T14:33:37.815Z,24.00
2018-02-18T14:34:37.773Z,24.40
2018-02-18T14:35:37.775Z,24.80
2018-02-18T14:36:37.782Z,23.20
2018-02-18T14:37:37.789Z,25.80
2018-02-18T14:38:37.795Z,22.10
2018-02-18T14:39:37.795Z,25.30
2018-02-18T14:40:37.799Z,26.60
2018-02-18T14:41:37.815Z,26.50
2018-02-18T14:42:37.809Z,26.50
2018-02-18T14:43:37.817Z,28.00
2018-02-18T14:44:37.823Z,22.70
2018-02-18T14:45:37.828Z,27.60
2018-02-18T14:46:37.823Z,24.40
2018-02-18T14:47:37.834Z,21.30
2018-02-18T14:48:37.840Z,27.50
2018-02-18T14:49:37.844Z,25.80
2018-02-18T14:50:37.853Z,26.70
2018-02-18T14:51:37.856Z,25.00
2018-02-18T14:52:37.856Z,29.40
2018-02-18T14:53:37.862Z,25.50
2018-02-18T14:54:37.909Z,27.10
2018-02-18T14:55:37.901Z,22.40
2018-02-18T14:56:37.872Z,26.90
2018-02-18T14:57:39.662Z,23.10
2018-02-18T14:58:37.886Z,29.50
2018-02-18T14:59:37.888Z,24.60
2018-02-18T15:00:37.894Z,27.00
2018-02-18T15:01:37.899Z,29.60
2018-02-18T15:02:37.911Z,23.00
2018-02-18T15:03:37.903Z,22.10
2018-02-18T15:04:37.914Z,27.00
2018-02-18T15:05:37.922Z,25.70
2018-02-18T15:06:38.745Z,28.10
2018-02-18T15:07:37.924Z,27.80
2018-02-18T15:08:37.928Z,25.50
2018-02-18T15:09:37.936Z,28.00
2018-02-18T15:10:37.943Z,25.10
2018-02-18T15:11:37.958Z,23.50
2018-02-18T15:12:37.946Z,24.80
2018-02-18T15:13:37.954Z,23.10
2018-02-18T15:14:37.949Z,26.10
2018-02-18T15:15:37.961Z,22.70
2018-02-18T15:16:37.971Z,22.00
2018-02-18T15:17:37.970Z,27.00
2018-02-18T15:18:37.970Z,23.80
2018-02-18T15:19:37.974Z,27.60
2018-02-18T15:20:38.121Z,26.00
2018-02-18T15:21:37.990Z,26.60
2018-02-18T15:22:37.988Z,23.90
2018-02-18T15:23:37.995Z,24.40
2018-02-18T15:24:38.007Z,24.00
2018-02-18T15:25:38.004Z,22.10
2018-02-18T15:26:38.009Z,31.20
2018-02-18T15:27:38.008Z,30.20
2018-02-18T15:28:38.017Z,27.80
2018-02-18T15:29:38.019Z,30.10
2018-02-18T15:30:38.025Z,26.20
2018-02-18T15:31:38.028Z,26.10
2018-02-18T15:32:38.031Z,25.20
2018-02-18T15:33:38.040Z,26.00
2018-02-18T15:34:38.047Z,26.90
2018-02-18T15:35:38.051Z,35.70
2018-02-18T15:36:38.046Z,27.50
2018-02-18T15:37:38.057Z,29.60
2018-02-18T15:38:38.058Z,24.40
2018-02-18T15:39:38.061Z,29.00
2018-02-18T15:40:38.074Z,25.10
2018-02-18T15:41:38.071Z,24.90
2018-02-18T15:42:38.073Z,26.20
2018-02-18T15:43:38.084Z,33.30
2018-02-18T15:44:38.086Z,29.10
2018-02-18T15:45:38.090Z,26.60
2018-02-18T15:46:38.093Z,29.00
2018-02-18T15:47:38.098Z,24.30
2018-02-18T15:48:38.104Z,25.50
2018-02-18T15:49:38.109Z,25.60
2018-02-18T15:50:38.109Z,24.50
2018-02-18T15:51:38.117Z,33.00
2018-02-18T15:52:38.122Z,30.00
2018-02-18T15:53:38.125Z,26.30
2018-02-18T15:54:38.143Z,25.70
2018-02-18T15:55:38.131Z,32.10
2018-02-18T15:56:38.139Z,24.30
2018-02-18T15:57:38.138Z,33.30
2018-02-18T15:58:38.140Z,38.60
2018-02-18T15:59:38.148Z,33.60
2018-02-18T16:00:38.151Z,33.90
2018-02-18T16:01:38.155Z,31.10
2018-02-18T16:02:38.159Z,28.40
2018-02-18T16:03:38.164Z,32.90
2018-02-18T16:04:38.164Z,30.00
2018-02-18T16:05:38.176Z,34.20
2018-02-18T16:06:38.173Z,32.20
2018-02-18T16:07:38.179Z,31.30
2018-02-18T16:08:38.182Z,26.40
2018-02-18T16:09:38.188Z,32.80
2018-02-18T16:10:38.191Z,30.30
2018-02-18T16:11:38.196Z,25.00
2018-02-18T16:12:38.198Z,31.60
2018-02-18T16:13:38.206Z,28.80
2018-02-18T16:14:38.208Z,28.20
2018-02-18T16:15:38.214Z,30.30
2018-02-18T16:16:38.216Z,34.30
2018-02-18T16:17:38.220Z,35.50
2018-02-18T16:18:38.226Z,31.60
2018-02-18T16:19:38.225Z,39.70
2018-02-18T16:20:38.242Z,37.00
2018-02-18T16:21:38.246Z,35.70
2018-02-18T16:22:38.243Z,31.40
2018-02-18T16:23:38.261Z,45.70
2018-02-18T16:24:38.249Z,39.10
2018-02-18T16:25:38.264Z,41.60
2018-02-18T16:26:38.258Z,31.70
2018-02-18T16:27:38.256Z,36.10
2018-02-18T16:28:38.263Z,33.60
2018-02-18T16:29:38.265Z,35.10
2018-02-18T16:30:38.272Z,30.70
2018-02-18T16:31:38.270Z,35.90
2018-02-18T16:32:38.283Z,32.50
2018-02-18T16:33:38.287Z,30.60
2018-02-18T16:34:38.282Z,31.10
2018-02-18T16:35:38.290Z,31.30
2018-02-18T16:36:38.296Z,28.30
2018-02-18T16:37:38.291Z,30.00
2018-02-18T16:38:38.304Z,30.50
2018-02-18T16:39:38.300Z,29.00
2018-02-18T16:40:38.302Z,34.20
2018-02-18T16:41:38.311Z,37.00
2018-02-18T16:42:38.318Z,32.40
2018-02-18T16:43:38.322Z,36.80
2018-02-18T16:44:38.334Z,44.80
2018-02-18T16:45:38.320Z,38.10
2018-02-18T16:46:38.330Z,45.20
2018-02-18T16:47:38.333Z,31.70
2018-02-18T16:48:38.337Z,35.80
2018-02-18T16:49:38.336Z,37.20
2018-02-18T16:50:38.341Z,37.50
2018-02-18T16:51:38.345Z,37.40
2018-02-18T16:52:38.349Z,41.00
2018-02-18T16:53:38.375Z,40.70
2018-02-18T16:54:38.367Z,43.10
2018-02-18T16:55:38.359Z,45.00
2018-02-18T16:56:38.389Z,41.90
2018-02-18T16:57:38.390Z,44.90
2018-02-18T16:58:38.372Z,36.10
2018-02-18T16:59:38.388Z,45.40
2018-02-18T17:00:38.394Z,37.70
2018-02-18T17:01:38.380Z,38.80
2018-02-18T17:02:38.382Z,41.20
2018-02-18T17:03:38.390Z,49.60
2018-02-18T17:04:38.393Z,40.30
2018-02-18T17:05:38.392Z,41.70
2018-02-18T17:06:38.405Z,43.10
2018-02-18T17:07:38.538Z,40.20
2018-02-18T17:08:38.412Z,40.40
2018-02-18T17:09:38.407Z,41.60
2018-02-18T17:10:38.409Z,40.00
2018-02-18T17:11:38.419Z,43.50
2018-02-18T17:12:38.417Z,43.90
2018-02-18T17:13:38.423Z,42.80
2018-02-18T17:14:38.425Z,45.10
2018-02-18T17:15:38.430Z,44.50
2018-02-18T17:16:38.432Z,49.00
2018-02-18T17:17:38.440Z,48.80
2018-02-18T17:18:38.435Z,48.50
2018-02-18T17:19:38.444Z,50.40
2018-02-18T17:20:38.445Z,50.00
2018-02-18T17:21:38.512Z,42.30
2018-02-18T17:22:38.450Z,46.50
2018-02-18T17:23:38.463Z,50.90
2018-02-18T17:24:38.456Z,52.30
2018-02-18T17:25:38.463Z,50.20
2018-02-18T17:26:38.462Z,53.60
2018-02-18T17:27:38.468Z,48.70
2018-02-18T17:28:38.479Z,53.20
2018-02-18T17:29:38.477Z,55.00
2018-02-18T17:30:38.471Z,49.60
2018-02-18T17:31:38.480Z,57.20
2018-02-18T17:32:38.482Z,57.70
2018-02-18T17:33:38.503Z,63.70
2018-02-18T17:34:38.489Z,51.10
2018-02-18T17:35:38.489Z,54.30
2018-02-18T17:36:38.491Z,56.20
2018-02-18T17:37:38.499Z,48.30
2018-02-18T17:38:38.504Z,46.10
2018-02-18T17:39:38.501Z,47.50
2018-02-18T17:40:38.510Z,44.90
2018-02-18T17:41:38.509Z,45.80
2018-02-18T17:42:38.514Z,45.60
2018-02-18T17:43:38.516Z,41.20
2018-02-18T17:44:38.522Z,42.00
2018-02-18T17:45:38.519Z,42.60
2018-02-18T17:46:38.527Z,48.10
2018-02-18T17:47:38.528Z,41.30
2018-02-18T17:48:38.756Z,41.80
2018-02-18T17:49:38.531Z,45.20
2018-02-18T17:50:38.539Z,45.40
2018-02-18T17:51:38.540Z,44.90
2018-02-18T17:52:38.541Z,44.90
2018-02-18T17:53:38.546Z,45.70
2018-02-18T17:54:38.554Z,40.50
2018-02-18T17:55:38.549Z,44.10
2018-02-18T17:56:38.550Z,45.30
2018-02-18T17:57:38.557Z,46.00
2018-02-18T17:58:38.560Z,52.60
2018-02-18T17:59:38.561Z,47.80
2018-02-18T18:00:38.565Z,44.00
2018-02-18T18:01:38.571Z,42.00
2018-02-18T18:02:38.577Z,50.30
2018-02-18T18:03:38.596Z,48.90
2018-02-18T18:04:38.580Z,47.30
2018-02-18T18:05:38.580Z,47.80
2018-02-18T18:06:38.581Z,45.60
2018-02-18T18:07:39.996Z,50.30
2018-02-18T18:08:40.594Z,44.40
2018-02-18T18:09:40.036Z,42.90
2018-02-18T18:10:40.108Z,49.00
2018-02-18T18:11:40.220Z,47.60
2018-02-18T18:12:40.220Z,47.20
2018-02-18T18:13:40.228Z,50.40
2018-02-18T18:14:39.949Z,46.30
2018-02-18T18:15:38.652Z,50.60
2018-02-18T18:16:38.612Z,44.40
2018-02-18T18:17:40.293Z,52.20
2018-02-18T18:18:40.166Z,61.60
2018-02-18T18:19:39.346Z,59.30
2018-02-18T18:20:39.126Z,58.60
2018-02-18T18:21:38.628Z,59.80
2018-02-18T18:22:38.628Z,55.50
2018-02-18T18:23:38.630Z,52.60
2018-02-18T18:24:38.638Z,55.70
2018-02-18T18:25:38.639Z,59.30
2018-02-18T18:26:38.640Z,51.30
2018-02-18T18:27:38.636Z,51.90
2018-02-18T18:28:38.643Z,54.10
2018-02-18T18:29:38.654Z,51.70
2018-02-18T18:30:38.652Z,49.40
2018-02-18T18:31:38.652Z,57.30
2018-02-18T18:32:38.659Z,53.90
2018-02-18T18:33:38.663Z,48.10
2018-02-18T18:34:38.669Z,57.10
2018-02-18T18:35:38.708Z,91.00
2018-02-18T18:36:38.675Z,60.60
2018-02-18T18:37:38.675Z,68.10
2018-02-18T18:38:38.675Z,55.10
2018-02-18T18:39:38.678Z,59.60
2018-02-18T18:40:38.686Z,64.70
2018-02-18T18:41:38.682Z,64.10
2018-02-18T18:42:38.693Z,59.80
2018-02-18T18:43:38.688Z,62.70
2018-02-18T18:44:38.694Z,60.40
2018-02-18T18:45:38.694Z,63.20
2018-02-18T18:46:38.708Z,64.40
2018-02-18T18:47:38.702Z,70.00
2018-02-18T18:48:38.713Z,70.10
2018-02-18T18:49:38.710Z,72.80
2018-02-18T18:50:38.706Z,70.00
2018-02-18T18:51:38.718Z,67.80
2018-02-18T18:52:38.711Z,66.70
2018-02-18T18:53:38.713Z,63.70
2018-02-18T18:54:38.714Z,64.10
2018-02-18T18:55:38.742Z,55.80
2018-02-18T18:56:38.728Z,66.00
2018-02-18T18:57:38.729Z,55.00
2018-02-18T18:58:38.734Z,62.70
2018-02-18T18:59:38.730Z,59.50
2018-02-18T19:00:38.734Z,53.10
2018-02-18T19:01:38.741Z,53.50
2018-02-18T19:02:38.743Z,57.20
2018-02-18T19:03:38.760Z,52.20
2018-02-18T19:04:38.742Z,55.60
2018-02-18T19:05:38.784Z,49.10
2018-02-18T19:06:38.749Z,53.90
2018-02-18T19:07:38.752Z,61.70
2018-02-18T19:08:38.755Z,58.30
2018-02-18T19:09:38.761Z,57.20
2018-02-18T19:10:38.767Z,53.40
2018-02-18T19:11:38.759Z,53.50
2018-02-18T19:12:38.768Z,60.40
2018-02-18T19:13:38.776Z,50.30
2018-02-18T19:14:38.781Z,51.40
2018-02-18T19:15:38.781Z,53.80
2018-02-18T19:16:38.779Z,50.80
2018-02-18T19:17:38.781Z,59.80
2018-02-18T19:18:38.778Z,69.40
2018-02-18T19:19:38.790Z,75.00
2018-02-18T19:20:38.786Z,75.00
2018-02-18T19:21:38.788Z,71.00
2018-02-18T19:22:38.788Z,77.80
2018-02-18T19:23:38.793Z,78.70
2018-02-18T19:24:38.792Z,67.00
2018-02-18T19:25:38.794Z,65.60
2018-02-18T19:26:38.808Z,70.70
2018-02-18T19:27:38.804Z,63.80
2018-02-18T19:28:38.801Z,59.30
2018-02-18T19:29:38.806Z,55.20
2018-02-18T19:30:38.814Z,55.80
2018-02-18T19:31:38.809Z,54.30
2018-02-18T19:32:38.816Z,54.20
2018-02-18T19:33:38.820Z,50.80
2018-02-18T19:34:38.825Z,53.30
2018-02-18T19:35:38.819Z,54.20
2018-02-18T19:36:38.849Z,50.70
2018-02-18T19:37:38.841Z,48.40
2018-02-18T19:38:38.844Z,48.00
2018-02-18T19:39:38.854Z,45.30
2018-02-18T19:40:38.832Z,44.00
2018-02-18T19:41:38.839Z,45.10
2018-02-18T19:42:38.837Z,58.90
2018-02-18T19:43:38.842Z,48.60
2018-02-18T19:44:38.844Z,48.80
2018-02-18T19:45:38.849Z,49.40
2018-02-18T19:46:38.851Z,51.50
2018-02-18T19:47:38.860Z,45.50
2018-02-18T19:48:38.857Z,58.20
2018-02-18T19:49:38.858Z,53.90
2018-02-18T19:50:38.860Z,55.90
2018-02-18T19:51:38.869Z,51.20
2018-02-18T19:52:38.862Z,53.40
2018-02-18T19:53:38.868Z,51.70
2018-02-18T19:54:38.872Z,48.20
2018-02-18T19:55:38.871Z,51.90
2018-02-18T19:56:38.875Z,51.60
2018-02-18T19:57:38.877Z,50.90
2018-02-18T19:58:38.875Z,48.40
2018-02-18T19:59:38.890Z,45.20
2018-02-18T20:00:38.910Z,47.30
2018-02-18T20:01:38.894Z,46.30
2018-02-18T20:02:38.898Z,45.10
2018-02-18T20:03:38.890Z,40.10
2018-02-18T20:04:38.889Z,43.60
2018-02-18T20:05:38.904Z,36.60
2018-02-18T20:06:38.901Z,44.50
2018-02-18T20:07:38.907Z,39.10
2018-02-18T20:08:38.905Z,45.90
2018-02-18T20:09:38.910Z,55.00
2018-02-18T20:10:38.905Z,52.50
2018-02-18T20:11:38.916Z,58.00
2018-02-18T20:12:38.918Z,44.00
2018-02-18T20:13:38.927Z,38.50
2018-02-18T20:14:38.921Z,39.00
2018-02-18T20:15:38.939Z,42.70
2018-02-18T20:16:39.824Z,44.10
2018-02-18T20:17:38.977Z,36.00
2018-02-18T20:18:38.928Z,40.90
2018-02-18T20:19:38.992Z,42.00
2018-02-18T20:20:38.980Z,42.70
2018-02-18T20:21:38.951Z,40.50
2018-02-18T20:22:38.938Z,36.70
2018-02-18T20:23:38.949Z,37.10
2018-02-18T20:24:38.953Z,38.80
2018-02-18T20:25:38.952Z,37.00
2018-02-18T20:26:38.959Z,35.30
2018-02-18T20:27:38.967Z,40.10
2018-02-18T20:28:38.963Z,35.20
2018-02-18T20:29:38.957Z,37.40
2018-02-18T20:30:38.965Z,33.50
2018-02-18T20:31:38.962Z,36.90
2018-02-18T20:32:38.970Z,41.10
2018-02-18T20:33:38.971Z,42.10
2018-02-18T20:34:38.991Z,41.10
2018-02-18T20:35:38.974Z,36.60
2018-02-18T20:36:39.034Z,37.20
2018-02-18T20:37:38.988Z,33.50
2018-02-18T20:38:38.985Z,42.70
2018-02-18T20:39:38.990Z,39.60
2018-02-18T20:40:38.999Z,36.10
2018-02-18T20:41:39.005Z,38.80
2018-02-18T20:42:39.020Z,37.90
2018-02-18T20:43:38.994Z,34.70
2018-02-18T20:44:39.006Z,33.40
2018-02-18T20:45:39.040Z,36.10
2018-02-18T20:46:39.016Z,34.70
2018-02-18T20:47:39.015Z,40.20
2018-02-18T20:48:39.031Z,39.30
2018-02-18T20:49:39.009Z,44.00
2018-02-18T20:50:39.024Z,39.50
2018-02-18T20:51:39.025Z,35.10
2018-02-18T20:52:39.046Z,40.60
2018-02-18T20:53:39.029Z,38.50
2018-02-18T20:54:39.829Z,38.20
2018-02-18T20:55:39.055Z,37.70
2018-02-18T20:56:39.026Z,36.30
2018-02-18T20:57:39.037Z,37.10
2018-02-18T20:58:39.029Z,36.00
2018-02-18T20:59:39.039Z,35.30
2018-02-18T21:00:39.042Z,36.40
2018-02-18T21:01:39.050Z,34.20
2018-02-18T21:02:39.116Z,36.10
2018-02-18T21:03:39.054Z,37.70
2018-02-18T21:04:39.059Z,38.20
2018-02-18T21:05:39.165Z,36.40
2018-02-18T21:06:39.140Z,37.20
2018-02-18T21:07:39.058Z,39.60
2018-02-18T21:08:39.055Z,33.90
2018-02-18T21:09:39.217Z,36.90
2018-02-18T21:10:39.073Z,36.00
2018-02-18T21:11:39.131Z,34.10
2018-02-18T21:12:39.074Z,37.40
2018-02-18T21:13:39.093Z,37.60
2018-02-18T21:14:39.079Z,40.10
2018-02-18T21:15:39.092Z,42.40
2018-02-18T21:16:39.117Z,36.30
2018-02-18T21:17:39.144Z,38.60
2018-02-18T21:18:39.086Z,37.20
2018-02-18T21:19:39.092Z,38.90
2018-02-18T21:20:39.093Z,37.50
2018-02-18T21:21:39.093Z,42.50
2018-02-18T21:22:39.096Z,38.60
2018-02-18T21:23:39.111Z,38.30
2018-02-18T21:24:39.104Z,37.60
2018-02-18T21:25:39.203Z,40.50
2018-02-18T21:26:39.171Z,38.00
2018-02-18T21:27:39.109Z,45.20
2018-02-18T21:28:39.107Z,38.80
2018-02-18T21:29:39.115Z,37.40
2018-02-18T21:30:39.141Z,37.80
2018-02-18T21:31:39.158Z,35.40
2018-02-18T21:32:39.137Z,37.30
2018-02-18T21:33:39.125Z,40.70
2018-02-18T21:34:39.125Z,42.90
2018-02-18T21:35:39.135Z,45.00
2018-02-18T21:36:39.142Z,43.00
2018-02-18T21:37:39.161Z,41.40
2018-02-18T21:38:39.132Z,40.80
2018-02-18T21:39:39.141Z,42.10
2018-02-18T21:40:39.132Z,39.50
2018-02-18T21:41:39.183Z,40.50
2018-02-18T21:42:39.142Z,37.10
2018-02-18T21:43:39.166Z,38.40
2018-02-18T21:44:39.156Z,40.20
2018-02-18T21:45:39.144Z,42.70
2018-02-18T21:46:39.147Z,40.00
2018-02-18T21:47:39.144Z,44.90
2018-02-18T21:48:39.263Z,40.30
2018-02-18T21:49:39.249Z,45.80
2018-02-18T21:50:39.154Z,42.80
2018-02-18T21:51:39.187Z,38.20
2018-02-18T21:52:39.166Z,61.50
2018-02-18T21:53:39.163Z,46.50
2018-02-18T21:54:39.174Z,52.80
2018-02-18T21:55:39.164Z,48.50
2018-02-18T21:56:39.167Z,46.00
2018-02-18T21:57:39.165Z,42.70
2018-02-18T21:58:39.196Z,44.30
2018-02-18T21:59:39.250Z,50.40
2018-02-18T22:00:39.854Z,41.90
2018-02-18T22:01:39.173Z,45.90
2018-02-18T22:02:39.178Z,42.80
2018-02-18T22:03:39.183Z,39.10
2018-02-18T22:04:39.218Z,51.30
2018-02-18T22:05:39.183Z,52.60
2018-02-18T22:06:39.207Z,45.60
2018-02-18T22:07:39.201Z,51.60
2018-02-18T22:08:39.192Z,46.30
2018-02-18T22:09:39.194Z,46.40
2018-02-18T22:10:39.193Z,54.90
2018-02-18T22:11:39.849Z,41.60
2018-02-18T22:12:39.204Z,51.20
2018-02-18T22:13:39.216Z,45.70
2018-02-18T22:14:39.198Z,43.30
2018-02-18T22:15:39.206Z,47.50
2018-02-18T22:16:39.203Z,49.80
2018-02-18T22:17:39.211Z,46.90
2018-02-18T22:18:39.211Z,42.30
2018-02-18T22:19:39.240Z,47.20
2018-02-18T22:20:39.294Z,48.20
2018-02-18T22:21:39.246Z,44.10
2018-02-18T22:22:39.226Z,49.50
2018-02-18T22:23:39.232Z,48.80
2018-02-18T22:24:39.223Z,47.20
2018-02-18T22:25:39.225Z,41.80
2018-02-18T22:26:39.224Z,47.40
2018-02-18T22:27:39.225Z,42.80
2018-02-18T22:28:39.247Z,45.90
2018-02-18T22:29:39.237Z,47.10
2018-02-18T22:30:39.239Z,44.90
2018-02-18T22:31:39.844Z,47.10
2018-02-18T22:32:39.304Z,49.60
2018-02-18T22:33:39.235Z,45.20
2018-02-18T22:34:39.272Z,47.50
2018-02-18T22:35:39.252Z,46.50
2018-02-18T22:36:39.240Z,45.80
2018-02-18T22:37:39.245Z,45.40
2018-02-18T22:38:39.245Z,42.60
2018-02-18T22:39:39.247Z,47.30
2018-02-18T22:40:39.259Z,45.20
2018-02-18T22:41:39.258Z,48.50
2018-02-18T22:42:39.256Z,46.50
2018-02-18T22:43:39.254Z,44.00
2018-02-18T22:44:39.265Z,44.10
2018-02-18T22:45:39.288Z,43.80
2018-02-18T22:46:39.262Z,42.00
2018-02-18T22:47:39.257Z,46.30
2018-02-18T22:48:39.270Z,44.00
2018-02-18T22:49:39.272Z,42.50
2018-02-18T22:50:39.286Z,44.50
2018-02-18T22:51:39.266Z,46.80
2018-02-18T22:52:39.296Z,43.80
2018-02-18T22:53:39.268Z,45.30
2018-02-18T22:54:39.279Z,47.80
2018-02-18T22:55:39.284Z,41.20
2018-02-18T22:56:39.270Z,47.60
2018-02-18T22:57:39.282Z,44.40
2018-02-18T22:58:39.274Z,48.70
2018-02-18T22:59:39.282Z,46.00
2018-02-18T23:00:39.284Z,46.70
2018-02-18T23:01:39.284Z,43.90
2018-02-18T23:02:39.291Z,50.10
2018-02-18T23:03:39.337Z,50.50
2018-02-18T23:04:39.289Z,49.10
2018-02-18T23:05:39.289Z,47.20
2018-02-18T23:06:39.292Z,46.40
2018-02-18T23:07:39.291Z,44.30
2018-02-18T23:08:39.299Z,46.60
2018-02-18T23:09:39.297Z,45.20
2018-02-18T23:10:39.299Z,43.30
2018-02-18T23:11:39.302Z,42.20
2018-02-18T23:12:39.306Z,42.40
2018-02-18T23:13:39.303Z,43.30
2018-02-18T23:14:39.307Z,40.80
2018-02-18T23:15:39.307Z,47.00
2018-02-18T23:16:39.306Z,37.20
2018-02-18T23:17:39.311Z,40.80
2018-02-18T23:18:39.851Z,44.50
2018-02-18T23:19:39.314Z,38.90
2018-02-18T23:20:39.312Z,42.80
2018-02-18T23:21:39.315Z,41.40
2018-02-18T23:22:39.313Z,40.80
2018-02-18T23:23:39.317Z,39.90
2018-02-18T23:24:39.321Z,38.40
2018-02-18T23:25:39.319Z,44.10
2018-02-18T23:26:39.325Z,42.60
2018-02-18T23:27:39.324Z,44.20
2018-02-18T23:28:39.327Z,37.70
2018-02-18T23:29:39.333Z,42.80
2018-02-18T23:30:39.335Z,41.10
2018-02-18T23:31:39.328Z,38.30
2018-02-18T23:32:39.336Z,42.80
2018-02-18T23:33:39.332Z,40.80
2018-02-18T23:34:39.337Z,42.40
2018-02-18T23:35:39.339Z,40.00
2018-02-18T23:36:39.342Z,39.30
2018-02-18T23:37:39.336Z,40.50
2018-02-18T23:38:39.345Z,40.30
2018-02-18T23:39:39.343Z,41.50
2018-02-18T23:40:39.347Z,41.80
2018-02-18T23:41:39.344Z,37.70
2018-02-18T23:42:39.357Z,38.20
2018-02-18T23:43:39.352Z,37.60
2018-02-18T23:44:39.352Z,41.60
2018-02-18T23:45:39.372Z,36.60
2018-02-18T23:46:39.360Z,40.80
2018-02-18T23:47:39.357Z,38.70
2018-02-18T23:48:39.358Z,40.40
2018-02-18T23:49:39.363Z,41.30
2018-02-18T23:50:39.367Z,39.50
2018-02-18T23:51:39.363Z,39.60
2018-02-18T23:52:39.368Z,43.30
2018-02-18T23:53:39.373Z,37.70
2018-02-18T23:54:39.371Z,40.60
2018-02-18T23:55:39.369Z,37.40
2018-02-18T23:56:39.375Z,44.20
2018-02-18T23:57:39.376Z,38.20
2018-02-18T23:58:39.379Z,38.40
2018-02-18T23:59:39.377Z,42.10
